TimeCDT,TemperatureF,Dew PointF,Humidity,Sea Level PressureIn,VisibilityMPH,Wind Direction,Wind SpeedMPH,Gust SpeedMPH,PrecipitationIn,Events,Conditions,WindDirDegrees,DateUTC
12:53 AM,79.0,75.0,88,29.93,10.0,WSW,9.2,-,N/A,,Clear,240,2013-09-03 05:53:00
1:53 AM,79.0,75.0,88,29.93,10.0,WSW,6.9,-,N/A,,Clear,240,2013-09-03 06:53:00
2:53 AM,78.1,75.0,90,29.92,10.0,WSW,3.5,-,N/A,,Clear,250,2013-09-03 07:53:00
3:53 AM,77.0,75.0,94,29.92,10.0,Calm,Calm,-,N/A,,Clear,0,2013-09-03 08:53:00
4:53 AM,75.9,75.0,97,29.93,10.0,West,4.6,-,N/A,,Clear,260,2013-09-03 09:53:00
5:53 AM,77.0,75.0,94,29.93,10.0,Calm,Calm,-,N/A,,Clear,0,2013-09-03 10:53:00
6:53 AM,75.9,75.0,97,29.96,10.0,Calm,Calm,-,N/A,,Partly Cloudy,0,2013-09-03 11:53:00
7:53 AM,79.0,75.9,90,29.97,10.0,SW,3.5,-,N/A,,Partly Cloudy,230,2013-09-03 12:53:00
8:53 AM,82.0,75.9,82,29.97,10.0,West,6.9,-,N/A,,Partly Cloudy,270,2013-09-03 13:53:00
9:53 AM,84.9,75.9,74,29.98,10.0,Variable,5.8,-,N/A,,Clear,0,2013-09-03 14:53:00
10:53 AM,88.0,75.0,65,29.99,10.0,Variable,3.5,-,N/A,,Clear,0,2013-09-03 15:53:00
11:53 AM,91.0,73.9,57,29.98,10.0,NW,6.9,-,N/A,,Scattered Clouds,320,2013-09-03 16:53:00
12:53 PM,91.9,72.0,52,29.96,10.0,West,5.8,-,N/A,,Scattered Clouds,280,2013-09-03 17:53:00
1:53 PM,93.0,71.1,49,29.93,10.0,Calm,Calm,-,N/A,,Scattered Clouds,0,2013-09-03 18:53:00
2:53 PM,93.9,71.1,47,29.90,10.0,WSW,8.1,-,N/A,,Partly Cloudy,240,2013-09-03 19:53:00
3:53 PM,93.9,72.0,49,29.87,10.0,West,8.1,-,N/A,,Scattered Clouds,270,2013-09-03 20:53:00
4:20 PM,91.4,71.6,52,29.87,10.0,WNW,6.9,-,N/A,Thunderstorm,Thunderstorm,300,2013-09-03 21:20:00
4:53 PM,84.9,72.0,65,29.88,5.0,NW,9.2,25.3,0.00,Thunderstorm,Thunderstorm,310,2013-09-03 21:53:00
5:12 PM,80.6,73.4,79,29.93,1.8,NNE,13.8,21.9,N/A,Rain-Thunderstorm,Thunderstorms and Rain,20,2013-09-03 22:12:00
5:40 PM,75.2,73.4,94,29.91,3.0,East,4.6,-,N/A,,Overcast,100,2013-09-03 22:40:00
5:53 PM,75.9,75.0,97,29.91,8.0,SSW,4.6,-,0.49,Rain,Light Rain,210,2013-09-03 22:53:00
6:53 PM,77.0,73.9,90,29.90,10.0,ENE,3.5,-,0.00,,Partly Cloudy,70,2013-09-03 23:53:00
7:53 PM,75.9,75.0,97,29.91,9.0,Calm,Calm,-,N/A,,Clear,0,2013-09-04 00:53:00
8:53 PM,75.9,75.0,97,29.96,8.0,SSE,8.1,-,N/A,,Clear,150,2013-09-04 01:53:00
9:53 PM,77.0,75.0,94,29.98,9.0,Calm,Calm,-,N/A,,Clear,0,2013-09-04 02:53:00
10:53 PM,75.9,75.0,97,29.97,8.0,Calm,Calm,-,N/A,,Clear,0,2013-09-04 03:53:00
11:53 PM,75.9,73.9,94,29.94,8.0,Calm,Calm,-,N/A,,Clear,0,2013-09-04 04:53:00